Aleksandr Zhitnik — EMBN — position and weather

sailwx.info

Track history (hours):
 
Tides and Currents Weather Stations Pressure Air Temp Water Temp Dewpoint Dewpoint Depression Visibility Wind Speed Wind Dir Waves Ship Positions

Aleksandr Zhitnik

Last reported at 2014-Oct-31 03:33 UTC. Time now 2014-Oct-31 04:11 UTC.
Position N 46°36' E 031°43'.

Length 85 m; draft 2.3 m.

Type: Cargo ship. MMSI: 272089600.

Date/timePositionNaut miles runAvg speedWind from/ knotsBaromVisibWave heightAir tempDewpointWater temp
2014-Oct-31 03:33N 46°36' E 031°43'41 3.4
2014-Oct-30 15:33N 46°31' E 030°44'0 0.0
2014-Oct-30 14:32N 46°31' E 030°44'0 0.0
2014-Oct-30 13:22N 46°31' E 030°44'0 0.0
2014-Oct-30 12:33N 46°31' E 030°44'0 0.0
2014-Oct-30 11:23N 46°31' E 030°44'0 0.0
2014-Oct-30 10:32N 46°31' E 030°44'0 0.0
2014-Oct-30 01:32N 46°31' E 030°44'0 0.0
2014-Oct-30 00:19N 46°31' E 030°44'0 0.0
2014-Oct-29 23:33N 46°31' E 030°44'0 0.0
2014-Oct-29 22:33N 46°31' E 030°44'41 2.7
2014-Oct-29 07:31N 46°35' E 031°43'5 5.3
2014-Oct-29 06:33N 46°35' E 031°50'5 5.3
2014-Oct-29 05:33N 46°33' E 031°58'5 4.9
2014-Oct-29 04:26N 46°31' E 032°05'1 0.2
2014-Oct-28 22:25N 46°30' E 032°04'0 0.0
2014-Oct-28 21:32N 46°30' E 032°04'0 0.0
2014-Oct-28 20:33N 46°30' E 032°04'0 0.0
2014-Oct-28 19:33N 46°30' E 032°04'0 0.0
2014-Oct-28 18:33N 46°30' E 032°04'0 0.0
2014-Oct-28 17:33N 46°30' E 032°04'0 0.0
2014-Oct-28 16:33N 46°30' E 032°04'0 0.0
2014-Oct-28 15:33N 46°30' E 032°04'0 0.0
2014-Oct-28 14:29N 46°30' E 032°04'0 0.0
2014-Oct-28 13:32N 46°30' E 032°04'0 0.0
2014-Oct-28 12:33N 46°30' E 032°04'  
Track history (hours):
 
Tides and Currents Weather Stations Pressure Air Temp Water Temp Dewpoint Dewpoint Depression Visibility Wind Speed Wind Dir Waves Ship Positions

Aleksandr Zhitnik

Last reported at 2014-Oct-31 03:33 UTC. Time now 2014-Oct-31 04:11 UTC.
Position N 46°36' E 031°43'.

Length 85 m; draft 2.3 m.

Type: Cargo ship. MMSI: 272089600.

Date/timePositionNaut miles runAvg speedWind from/ knotsBaromVisibWave heightAir tempDewpointWater temp
2014-Oct-31 03:33N 46°36' E 031°43'41 3.4
2014-Oct-30 15:33N 46°31' E 030°44'0 0.0
2014-Oct-30 14:32N 46°31' E 030°44'0 0.0
2014-Oct-30 13:22N 46°31' E 030°44'0 0.0
2014-Oct-30 12:33N 46°31' E 030°44'0 0.0
2014-Oct-30 11:23N 46°31' E 030°44'0 0.0
2014-Oct-30 10:32N 46°31' E 030°44'0 0.0
2014-Oct-30 01:32N 46°31' E 030°44'0 0.0
2014-Oct-30 00:19N 46°31' E 030°44'0 0.0
2014-Oct-29 23:33N 46°31' E 030°44'0 0.0
2014-Oct-29 22:33N 46°31' E 030°44'41 2.7
2014-Oct-29 07:31N 46°35' E 031°43'5 5.3
2014-Oct-29 06:33N 46°35' E 031°50'5 5.3
2014-Oct-29 05:33N 46°33' E 031°58'5 4.9
2014-Oct-29 04:26N 46°31' E 032°05'1 0.2
2014-Oct-28 22:25N 46°30' E 032°04'0 0.0
2014-Oct-28 21:32N 46°30' E 032°04'0 0.0
2014-Oct-28 20:33N 46°30' E 032°04'0 0.0
2014-Oct-28 19:33N 46°30' E 032°04'0 0.0
2014-Oct-28 18:33N 46°30' E 032°04'0 0.0
2014-Oct-28 17:33N 46°30' E 032°04'0 0.0
2014-Oct-28 16:33N 46°30' E 032°04'0 0.0
2014-Oct-28 15:33N 46°30' E 032°04'0 0.0
2014-Oct-28 14:29N 46°30' E 032°04'0 0.0
2014-Oct-28 13:32N 46°30' E 032°04'0 0.0
2014-Oct-28 12:33N 46°30' E 032°04'  

Dump ship's entire track history